Flight Track Log - Related Links

Times and Time Zones

All times are in EDT time to prevent confusion due to time zone crossing. See the N240JK flight status page for this flight to view local times or setup timezone preferences in your user account.

Time Position Orientation Groundspeed Altitude Reporting Facility
EDT Latitude Longitude Course Direction KTS MPH feet Rate Location/Type
Wed 02:29:48 PM 27.9333 -82.7000 333° Northwest 179 206 700  Level Tampa TRACON
Wed 02:30:36 PM 27.9667 -82.7000 360° North 204 235 1,900 1,700 Climbing Tampa TRACON
Wed 02:31:48 PM 28.0333 -82.7333 336° Northwest 220 253 4,100 1,545 Climbing Tampa TRACON
Wed 02:32:48 PM 28.1000 -82.7500 348° North 215 247 5,300 2,143 Climbing Tampa TRACON
Wed 02:34:22 PM 28.2125 -82.7700 351° North 251 289 9,600 2,649 Climbing Jacksonville Center
Wed 02:35:00 PM 28.4941 -83.0523 333° Northwest  Level FlightAware Approximate
Wed 02:35:22 PM 28.3000 -82.7842 352° North 282 325 12,100  Level Jacksonville Center
Wed 02:36:22 PM 28.3983 -82.8053 349° North 326 375 15,000 2,900 Climbing Jacksonville Center
Wed 02:37:22 PM 28.5006 -82.8336 346° North 358 412 17,900 3,000 Climbing Jacksonville Center
Wed 02:38:22 PM 28.5986 -82.8736 340° North 365 420 21,000 2,700 Climbing Jacksonville Center
Wed 02:39:22 PM 28.6736 -82.9186 332° Northwest 376 433 23,300 2,600 Climbing Jacksonville Center
Wed 02:40:22 PM 28.7781 -82.9803 333° Northwest 376 433 26,200 2,500 Climbing Jacksonville Center
Wed 02:41:22 PM 28.8844 -83.0136 345° North 381 438 28,300 2,050 Climbing Jacksonville Center
Wed 02:42:22 PM 28.9950 -83.0444 346° North 397 457 30,300 1,900 Climbing Jacksonville Center
Wed 02:43:22 PM 29.1097 -83.0781 346° North 409 471 32,100 1,750 Climbing Jacksonville Center
Wed 02:44:22 PM 29.2267 -83.1139 345° North 416 479 33,800 1,700 Climbing Jacksonville Center
Wed 02:45:22 PM 29.3456 -83.1475 346° North 426 490 35,500 1,700 Climbing Jacksonville Center
Wed 02:46:22 PM 29.4769 -83.1861 346° North 431 496 37,200 1,750 Climbing Jacksonville Center
Wed 02:47:22 PM 29.5917 -83.2175 347° North 448 516 39,000 1,400 Climbing Jacksonville Center
Wed 02:48:22 PM 29.7169 -83.2586 344° North 438 504 40,000 500 Climbing Jacksonville Center
Wed 02:49:22 PM 29.8378 -83.2925 346° North 438 504 40,000  Level Jacksonville Center
Wed 02:50:22 PM 29.9547 -83.3242 347° North 433 498 40,000  Level Jacksonville Center
Wed 02:51:22 PM 30.0714 -83.3558 347° North 433 498 40,000  Level Jacksonville Center
Wed 02:52:22 PM 30.1861 -83.3875 347° North 433 498 40,000  Level Jacksonville Center
Wed 02:53:22 PM 30.3008 -83.4242 345° North 433 498 40,000  Level Jacksonville Center
Wed 02:54:22 PM 30.4178 -83.4561 347° North 428 493 40,000  Level Jacksonville Center
Wed 02:55:22 PM 30.5303 -83.4883 346° North 428 493 40,000  Level Jacksonville Center
Wed 02:56:22 PM 30.6469 -83.5253 345° North 428 493 40,000  Level Jacksonville Center
Wed 02:57:22 PM 30.7575 -83.5575 346° North 422 486 40,000  Level Jacksonville Center
Wed 02:58:22 PM 30.8556 -83.5872 345° North 410 472 40,000  Level Jacksonville Center
Wed 02:59:22 PM 30.9681 -83.6219 345° North 410 472 40,000  Level Jacksonville Center
Wed 03:00:22 PM 31.0806 -83.6542 346° North 410 472 40,000  Level Jacksonville Center
Wed 03:02:51 PM 31.3728 -83.7422 346° North 415 478 40,000  Level Atlanta Center
Wed 03:03:51 PM 31.4833 -83.7783 344° North 415 478 40,000  Level Atlanta Center
Wed 03:04:51 PM 31.5731 -83.8050 346° North 410 472 40,000  Level Atlanta Center
Wed 03:05:51 PM 31.6983 -83.8411 346° North 415 478 40,000  Level Atlanta Center
Wed 03:06:51 PM 31.8194 -83.8800 345° North 424 488 40,000  Level Atlanta Center
Wed 03:07:51 PM 31.9281 -83.9117 346° North 424 488 40,000  Level Atlanta Center
Wed 03:08:51 PM 32.0408 -83.9458 346° North 413 475 40,000  Level Atlanta Center
Wed 03:09:51 PM 32.1536 -83.9775 347° North 408 470 40,000  Level Atlanta Center
Wed 03:10:51 PM 32.2642 -84.0119 345° North 413 475 40,000  Level Atlanta Center
Wed 03:11:51 PM 32.3750 -84.0461 345° North 413 475 40,000  Level Atlanta Center
Wed 03:12:51 PM 32.4856 -84.0808 345° North 413 475 40,000  Level Atlanta Center
Wed 03:13:51 PM 32.5981 -84.1153 346° North 413 475 40,000  Level Atlanta Center
Wed 03:14:51 PM 32.7131 -84.1500 346° North 413 475 40,000  Level Atlanta Center
Wed 03:15:51 PM 32.8256 -84.1872 344° North 413 475 40,000  Level Atlanta Center
Wed 03:16:51 PM 32.9467 -84.2244 346° North 413 475 40,000  Level Atlanta Center
Wed 03:17:51 PM 33.0594 -84.2594 345° North 413 475 40,000  Level Atlanta Center
Wed 03:18:51 PM 33.1719 -84.2919 346° North 413 475 40,000  Level Atlanta Center
Wed 03:19:51 PM 33.2867 -84.3319 344° North 413 475 40,000  Level Atlanta Center
Wed 03:20:51 PM 33.3994 -84.3647 346° North 413 475 40,000  Level Atlanta Center
Wed 03:21:51 PM 33.5100 -84.4000 345° North 413 475 40,000  Level Atlanta Center
Wed 03:22:51 PM 33.6142 -84.4331 345° North 413 475 40,000  Level Atlanta Center
Wed 03:23:51 PM 33.7206 -84.4608 348° North 406 467 40,000  Level Atlanta Center
Wed 03:24:51 PM 33.8456 -84.4914 349° North 420 483 40,000  Level Atlanta Center
Wed 03:25:51 PM 33.9625 -84.5172 350° North 425 489 40,000  Level Atlanta Center
Wed 03:26:51 PM 34.0792 -84.5478 348° North 425 489 40,000  Level Atlanta Center
Wed 03:27:51 PM 34.2042 -84.5764 349° North 441 507 40,000  Level Atlanta Center
Wed 03:28:51 PM 34.3189 -84.6022 349° North 441 507 40,000  Level Atlanta Center
Wed 03:29:51 PM 34.4378 -84.6333 348° North 431 496 40,000  Level Atlanta Center
Wed 03:30:51 PM 34.5567 -84.6617 349° North 431 496 40,000  Level Atlanta Center
Wed 03:31:51 PM 34.6669 -84.6903 348° North 424 488 40,000  Level Atlanta Center
Wed 03:32:51 PM 34.7836 -84.7192 349° North 419 482 40,000  Level Atlanta Center
Wed 03:33:51 PM 34.9047 -84.7506 348° North 425 489 40,000  Level Atlanta Center
Wed 03:34:51 PM 35.0233 -84.7794 349° North 430 495 40,000  Level Atlanta Center
Wed 03:35:51 PM 35.1422 -84.8083 349° North 430 495 40,000  Level Atlanta Center
Wed 03:36:51 PM 35.2589 -84.8375 348° North 430 495 40,000  Level Atlanta Center
Wed 03:37:51 PM 35.3797 -84.8692 348° North 430 495 40,000  Level Atlanta Center
Wed 03:38:51 PM 35.4983 -84.8983 349° North 435 501 40,000  Level Atlanta Center
Wed 03:39:51 PM 35.6192 -84.9303 348° North 435 501 40,000  Level Atlanta Center
Wed 03:40:51 PM 35.7397 -84.9625 348° North 430 495 40,000  Level Atlanta Center
Wed 03:42:20 PM 35.9219 -85.0039 350° North 441 507 40,000  Level Indianapolis Center
Wed 03:43:22 PM 36.0456 -85.0361 348° North 454 522 40,000  Level Indianapolis Center
Wed 03:44:25 PM 36.1672 -85.0664 349° North 449 517 40,000  Level Indianapolis Center
Wed 03:45:27 PM 36.3119 -85.1028 349° North 444 511 40,000  Level Indianapolis Center
Wed 03:46:29 PM 36.4328 -85.1339 348° North 444 511 40,000  Level Indianapolis Center
Wed 03:47:31 PM 36.5528 -85.1672 347° North 444 511 40,000  Level Indianapolis Center
Wed 03:48:33 PM 36.6750 -85.1967 349° North 444 511 40,000  Level Indianapolis Center
Wed 03:49:35 PM 36.7967 -85.2289 348° North 444 511 40,000  Level Indianapolis Center
Wed 03:50:37 PM 36.9181 -85.2600 348° North 445 512 40,000  Level Indianapolis Center
Wed 03:51:39 PM 37.0589 -85.2981 348° North 445 512 40,000  Level Indianapolis Center
Wed 03:52:41 PM 37.1817 -85.3306 348° North 445 512 40,000  Level Indianapolis Center
Wed 03:53:43 PM 37.3028 -85.3636 348° North 445 512 40,000  Level Indianapolis Center
Wed 03:54:46 PM 37.4267 -85.3953 349° North 445 512 40,000  Level Indianapolis Center
Wed 03:55:48 PM 37.5675 -85.4333 348° North 445 512 40,000  Level Indianapolis Center
Wed 03:56:50 PM 37.6883 -85.4664 348° North 445 512 40,000  Level Indianapolis Center
Wed 03:57:52 PM 37.8108 -85.4992 348° North 445 512 40,000  Level Indianapolis Center
Wed 03:58:54 PM 37.9303 -85.5297 349° North 447 514 40,000  Level Indianapolis Center
Wed 03:59:56 PM 38.0522 -85.5628 348° North 447 514 40,000  Level Indianapolis Center
Wed 04:00:58 PM 38.1892 -85.6250 340° North 440 506 40,000  Level Indianapolis Center
Wed 04:02:00 PM 38.2969 -85.6906 334° Northwest 434 499 40,000  Level Indianapolis Center
Wed 04:03:02 PM 38.4061 -85.7556 335° Northwest 433 498 40,000  Level Indianapolis Center
Wed 04:04:04 PM 38.5147 -85.8200 335° Northwest 433 498 40,000  Level Indianapolis Center
Wed 04:05:07 PM 38.6317 -85.8881 336° Northwest 433 498 40,000  Level Indianapolis Center
Wed 04:06:09 PM 38.7342 -85.9500 335° Northwest 433 498 40,000  Level Indianapolis Center
Wed 04:07:11 PM 38.8647 -86.0272 335° Northwest 433 498 40,000  Level Indianapolis Center
Wed 04:08:13 PM 38.9597 -86.0842 335° Northwest 433 498 40,000  Level Indianapolis Center
Wed 04:09:15 PM 39.0900 -86.1622 335° Northwest 433 498 40,000  Level Indianapolis Center
Wed 04:10:17 PM 39.1972 -86.2286 334° Northwest 432 497 40,000  Level Indianapolis Center
Wed 04:11:19 PM 39.3039 -86.2933 335° Northwest 428 493 40,000  Level Indianapolis Center
Wed 04:12:21 PM 39.4108 -86.3586 335° Northwest 427 491 40,000  Level Indianapolis Center
Wed 04:13:24 PM 39.5172 -86.4247 334° Northwest 425 489 40,000  Level Indianapolis Center
Wed 04:14:26 PM 39.6267 -86.4908 335° Northwest 425 489 40,000  Level Indianapolis Center
Wed 04:15:28 PM 39.7503 -86.5203 350° North 442 509 40,000  Level Indianapolis Center
Wed 04:16:30 PM 39.8731 -86.5458 351° North 440 506 40,000  Level Indianapolis Center
Wed 04:17:32 PM 39.9936 -86.6356 330° Northwest 419 482 40,000  Level Indianapolis Center
Wed 04:18:34 PM 40.0931 -86.7114 330° Northwest 415 478 40,000  Level Indianapolis Center
Wed 04:19:36 PM 40.1969 -86.7819 333° Northwest 417 480 40,000 -145 Level Indianapolis Center
Wed 04:20:38 PM 40.3131 -86.8261 344° North 429 494 39,700 -774 Descending Indianapolis Center
Wed 04:21:40 PM 40.4272 -86.8767 341° North 429 494 38,400 -1,296 Descending Indianapolis Center
Wed 04:22:43 PM 40.5319 -86.9439 334° Northwest 423 487 37,000 -1,872 Descending Indianapolis Center
Wed 04:23:45 PM 40.6553 -87.0319 332° Northwest 422 486 34,500 -2,565 Descending Indianapolis Center
Wed 04:24:47 PM 40.7606 -87.1061 332° Northwest 426 490 31,700 -1,694 Descending Indianapolis Center
Wed 04:25:49 PM 40.8836 -87.1233 354° North 438 504 31,000 -339 Descending Indianapolis Center
Wed 04:26:51 PM 41.0058 -87.1447 352° North 441 507 31,000  Level Indianapolis Center
Wed 04:27:53 PM 41.1317 -87.1597 355° North 449 517 31,000 -242 Level Indianapolis Center
Wed 04:28:55 PM 41.2569 -87.1739 355° North 453 521 30,500 -1,137 Descending Indianapolis Center
Wed 04:30:26 PM 41.4531 -87.1986 355° North 427 491 28,100 -1,490 Descending Chicago Center
Wed 04:31:28 PM 41.5792 -87.2119 355° North 450 518 26,700 -1,403 Descending Chicago Center
Wed 04:32:30 PM 41.7097 -87.2283 355° North 469 540 25,200 -1,452 Descending Chicago Center
Wed 04:33:32 PM 41.8369 -87.2444 355° North 468 539 23,700 -1,548 Descending Chicago Center
Wed 04:34:34 PM 41.9836 -87.2625 355° North 447 514 22,000 -1,536 Descending Chicago Center
Wed 04:35:37 PM 42.1031 -87.2744 356° North 434 499 20,500 -1,392 Descending Chicago Center
Wed 04:36:39 PM 42.2222 -87.2903 354° North 431 496 19,100 -1,210 Descending Chicago Center
Wed 04:37:41 PM 42.3394 -87.3039 355° North 428 493 18,000 -1,113 Descending Chicago Center
Wed 04:38:43 PM 42.4497 -87.3189 354° North 406 467 16,800 -1,887 Descending Chicago Center
Wed 04:39:45 PM 42.5656 -87.3325 355° North 383 441 14,100 -2,806 Descending Chicago Center
Wed 04:40:47 PM 42.6625 -87.3450 355° North 354 407 11,000 -1,984 Descending Chicago Center
Wed 04:41:49 PM 42.7364 -87.4278 321° Northwest 312 359 10,000 -720 Descending Chicago Center
Wed 04:42:52 PM 42.7817 -87.5225 303° West 301 346 9,500 -720 Descending Chicago Center
Wed 04:43:54 PM 42.8181 -87.6117 299° West 272 313 8,500 -1,161 Descending Chicago Center
Wed 04:44:56 PM 42.8581 -87.7011 301° West 273 314 7,100 -1,210 Descending Chicago Center
Wed 04:45:58 PM 42.8967 -87.7894 301° West 272 313 6,000 -532 Descending Chicago Center
Wed 04:47:00 PM 42.9339 -87.8722 302° West 261 300 6,000  Level Chicago Center
Wed 04:48:02 PM 42.9808 -87.9767 302° West 265 305 6,000  Level Chicago Center
Wed 04:49:04 PM 43.0192 -88.0633 301° West 266 306 6,000 -144 Level Chicago Center
Wed 04:50:07 PM 43.0578 -88.1497 301° West 265 305 5,700 -912 Descending Chicago Center
Wed 04:51:09 PM 43.0944 -88.2331 301° West 261 300 4,100 -823 Descending Chicago Center
Wed 04:52:11 PM 43.1097 -88.3092 285° West 228 262 4,000 -339 Descending Chicago Center
Wed 04:53:13 PM 43.1206 -88.3806 282° West 201 231 3,400 -484 Descending Chicago Center
Wed 04:54:15 PM 43.1111 -88.4694 262° West 216 249 3,000 -194 Descending Chicago Center
Wed 04:55:17 PM 43.0714 -88.4400 152° Southeast 200 230 3,000 -97 Level Chicago Center
Wed 04:56:19 PM 43.0636 -88.3756 99° East 184 212 2,800 -484 Descending Chicago Center
Wed 04:57:21 PM 43.0547 -88.3194 102° East 168 193 2,000 -720 Descending Chicago Center
Wed 04:58:24 PM 43.0467 -88.2700 103° East 150 173 1,300 -667 Descending Chicago Center

Login

Don't have an account? Register now (free) for customized features, flight alerts, and more!